Impacts TAF Board INFO
FOR SITUATIONAL AWARENESS. NOT TO BE USED FOR FLIGHT PLANNING PURPOSES.
IDs:

KIAH - Houston/Bush Intl, TX, US

Issued at 1217 UTC 19 Jun 2018
Updated at 1237 UTC 19 Jun 2018
Potential Impact None Slight Moderate High
Time<<20/01Z 20/02Z 20/03Z 20/04Z 20/05Z 20/06Z 20/07Z 20/08Z 20/09Z 20/10Z 20/11Z 20/12Z 20/13Z>>
Type PRVL PRVL PRVL PRVL PRVL PRVL PRVL PRVL PRVL PRVL PRVL PRVL PRVL
VIS >6 >6 >6 >6 >6 >6 >6 >6 >6 >6 >6 >6 >6
CIG 15 15 15 15 15 12 12 12 12 12 12 12 12
Cover BKN BKN BKN BKN BKN BKN BKN BKN BKN BKN BKN BKN BKN
FltCat MVFR MVFR MVFR MVFR MVFR MVFR MVFR MVFR MVFR MVFR MVFR MVFR MVFR
WX VCSH VCSH VCSH VCSH VCSH VCSH VCSH VCSH VCSH VCSH VCSH VCSH VCSH
WDir 120 120 120 120 120 110 110 110 110 110 110 110 110
WSpd 10 10 10 10 10 7 7 7 7 7 7 7 7
WGst -- -- -- -- -- -- -- -- -- -- -- -- --

Raw TAF
KIAH 191217Z 1912/2018 11010KT P6SM FEW008 SCT025 BKN040
  TEMPO 1912/1913 3SM SHRA SCT015 BKN025
  FM191400 12012KT P6SM VCSH BKN015
  FM191700 12013KT P6SM VCTS BKN025CB
  FM200000 12010KT P6SM VCSH BKN015
  FM200600 11007KT P6SM VCSH BKN012 BKN140
  FM201500 15007KT P6SM VCSH SCT015 BKN030 OVC150


METAR Board
Radar Display
Forecast Discussion

FOR SITUATIONAL AWARENESS. NOT TO BE USED FOR FLIGHT PLANNING PURPOSES.